KROA

Roanoke-Blacksburg Regional / Woodrum Field Airport

Roanoke, Virginia, USA
METAR KROA 160554Z 00000KT 10SM CLR 22/19 A3015 RMK AO2 SLP196 T02170189 10272 20206 50003
Observed Flight Rules
Aug-16 @ 05:54 UTC (22 minutes ago) Visual Flight Rules
Visibility Clouds
10 miles
  • Clear skies
Temperatures Readings
Current 22°C / 72°F
Dewpoint 19°C / 66°F
Humidity 83%
Altimeter 30.15" Hg
Pressure 1019.6 hPa
Elevation 362
METAR KROA 160554Z 00000KT 10SM CLR 22/19 A3015 RMK AO2 SLP196 T02170189 10272 20206 50003
Observed Flight Rules
Aug-16 @ 05:54 UTC
(22 minutes ago)
VFR
Clouds
  • Clear skies
Temperature Dewpoint
22°C / 72°F 19°C / 66°F
Humidity Altimeter Pressure
83% 30.15" Hg 1019.6 hPa